createdAt,value
2022-09-11T00:00:56.440Z,14.17
2022-09-11T00:03:24.514Z,14.10
2022-09-11T00:05:51.928Z,14.60
2022-09-11T00:08:20.916Z,14.13
2022-09-11T00:10:48.357Z,14.00
2022-09-11T00:13:21.176Z,14.30
2022-09-11T00:15:50.177Z,13.37
2022-09-11T00:18:21.559Z,13.57
2022-09-11T00:20:54.085Z,13.13
2022-09-11T00:23:22.913Z,12.83
2022-09-11T00:25:50.112Z,13.93
2022-09-11T00:28:25.810Z,13.83
2022-09-11T00:31:05.080Z,13.30
2022-09-11T00:33:32.442Z,13.17
2022-09-11T00:36:03.727Z,12.83
2022-09-11T00:38:32.728Z,13.53
2022-09-11T00:41:00.950Z,12.60
2022-09-11T00:43:29.282Z,12.63
2022-09-11T00:46:05.628Z,12.57
2022-09-11T00:48:35.870Z,13.73
2022-09-11T00:51:04.008Z,12.00
2022-09-11T00:53:34.338Z,13.70
2022-09-11T00:56:04.805Z,12.40
2022-09-11T00:58:35.820Z,13.50
2022-09-11T01:01:03.266Z,11.67
2022-09-11T01:03:32.030Z,11.03
2022-09-11T01:05:59.393Z,12.33
2022-09-11T01:08:25.985Z,11.37
2022-09-11T01:11:14.396Z,12.67
2022-09-11T01:13:50.048Z,11.83
2022-09-11T01:16:23.432Z,12.00
2022-09-11T01:19:08.871Z,12.57
2022-09-11T01:22:01.146Z,12.50
2022-09-11T01:24:48.896Z,11.93
2022-09-11T01:27:40.296Z,10.83
2022-09-11T01:30:11.784Z,10.80
2022-09-11T01:32:41.629Z,11.17
2022-09-11T01:35:21.397Z,12.70
2022-09-11T01:38:06.718Z,11.30
2022-09-11T01:40:40.589Z,11.13
2022-09-11T01:43:12.289Z,11.37
2022-09-11T01:45:41.538Z,10.03
2022-09-11T01:48:09.742Z,11.40
2022-09-11T01:50:41.883Z,10.93
2022-09-11T01:53:12.193Z,11.17
2022-09-11T01:55:49.927Z,10.70
2022-09-11T01:58:22.709Z,10.80
2022-09-11T02:00:54.769Z,12.03
2022-09-11T02:03:36.939Z,10.53
2022-09-11T02:06:10.869Z,10.50
2022-09-11T02:08:44.087Z,11.00
2022-09-11T02:11:13.608Z,9.87
2022-09-11T02:13:49.853Z,9.83
2022-09-11T02:16:29.617Z,9.70
2022-09-11T02:19:03.299Z,9.73
2022-09-11T02:21:31.100Z,9.63
2022-09-11T02:23:58.021Z,10.43
2022-09-11T02:26:27.293Z,9.50
2022-09-11T02:28:54.344Z,10.53
2022-09-11T02:31:22.261Z,9.70
2022-09-11T02:33:50.053Z,9.93
2022-09-11T02:36:31.749Z,9.83
2022-09-11T02:38:58.322Z,10.30
2022-09-11T02:41:31.558Z,9.70
2022-09-11T02:44:21.732Z,9.73
2022-09-11T02:47:20.005Z,9.20
2022-09-11T02:50:04.774Z,10.03
2022-09-11T02:52:46.709Z,9.47
2022-09-11T02:55:32.376Z,10.30
2022-09-11T02:58:44.041Z,9.47
2022-09-11T03:01:11.699Z,8.70
2022-09-11T03:03:45.795Z,8.23
2022-09-11T03:06:19.148Z,8.27
2022-09-11T03:08:45.758Z,8.17
2022-09-11T03:11:15.246Z,7.87
2022-09-11T03:13:42.019Z,7.87
2022-09-11T03:16:08.722Z,8.60
2022-09-11T03:18:35.569Z,7.63
2022-09-11T03:21:03.571Z,7.23
2022-09-11T03:23:30.598Z,7.87
2022-09-11T03:25:57.166Z,8.07
2022-09-11T03:28:24.186Z,7.60
2022-09-11T03:30:52.830Z,7.73
2022-09-11T03:33:19.414Z,7.63
2022-09-11T03:35:47.020Z,7.80
2022-09-11T03:38:13.681Z,7.63
2022-09-11T03:40:43.148Z,7.87
2022-09-11T03:43:10.241Z,7.53
2022-09-11T03:45:36.843Z,7.97
2022-09-11T03:48:03.464Z,6.93
2022-09-11T03:50:30.007Z,7.50
2022-09-11T03:52:56.569Z,6.70
2022-09-11T03:55:24.033Z,7.77
2022-09-11T03:57:50.620Z,8.10
2022-09-11T04:00:17.296Z,7.23
2022-09-11T04:02:43.939Z,7.77
2022-09-11T04:05:11.512Z,7.37
2022-09-11T04:07:38.450Z,7.53
2022-09-11T04:10:06.685Z,7.00
2022-09-11T04:12:33.692Z,7.87
2022-09-11T04:15:00.273Z,7.93
2022-09-11T04:17:29.932Z,7.63
2022-09-11T04:19:57.817Z,6.80
2022-09-11T04:22:24.491Z,6.67
2022-09-11T04:24:51.855Z,7.63
2022-09-11T04:27:18.945Z,8.03
2022-09-11T04:29:46.514Z,7.77
2022-09-11T04:32:13.401Z,7.17
2022-09-11T04:34:41.336Z,7.23
2022-09-11T04:37:08.044Z,7.77
2022-09-11T04:39:35.605Z,7.53
2022-09-11T04:42:02.250Z,7.77
2022-09-11T04:44:29.320Z,7.00
2022-09-11T04:46:56.430Z,6.70
2022-09-11T04:49:23.391Z,6.60
2022-09-11T04:51:50.494Z,7.37
2022-09-11T04:54:21.235Z,5.93
2022-09-11T04:56:48.773Z,7.13
2022-09-11T04:59:22.237Z,7.40
2022-09-11T05:01:49.794Z,7.10
2022-09-11T05:04:21.839Z,7.50
2022-09-11T05:06:50.753Z,7.13
2022-09-11T05:09:18.502Z,7.60
2022-09-11T05:11:45.413Z,6.97
2022-09-11T05:14:12.619Z,7.27
2022-09-11T05:16:39.266Z,8.77
2022-09-11T05:19:06.482Z,6.73
2022-09-11T05:21:33.725Z,8.33
2022-09-11T05:24:01.685Z,7.50
2022-09-11T05:26:33.657Z,8.40
2022-09-11T05:29:05.589Z,7.30
2022-09-11T05:31:32.277Z,8.27
2022-09-11T05:34:00.342Z,7.80
2022-09-11T05:36:28.316Z,7.50
2022-09-11T05:38:55.022Z,7.33
2022-09-11T05:41:21.657Z,8.03
2022-09-11T05:43:48.593Z,8.03
2022-09-11T05:46:16.765Z,7.53
2022-09-11T05:48:43.484Z,7.23
2022-09-11T05:51:12.928Z,9.43
2022-09-11T05:53:40.709Z,9.53
2022-09-11T05:56:09.258Z,9.03
2022-09-11T05:58:36.737Z,9.23
2022-09-11T06:01:08.341Z,9.27
2022-09-11T06:03:36.471Z,9.17
2022-09-11T06:06:04.843Z,9.70
2022-09-11T06:08:34.377Z,8.97
2022-09-11T06:11:02.692Z,10.10
2022-09-11T06:13:31.656Z,11.50
2022-09-11T06:15:58.245Z,9.90
2022-09-11T06:18:24.800Z,9.97
2022-09-11T06:20:59.376Z,11.73
2022-09-11T06:23:26.528Z,9.93
2022-09-11T06:25:56.383Z,10.83
2022-09-11T06:28:23.856Z,11.87
2022-09-11T06:30:51.256Z,12.03
2022-09-11T06:33:20.341Z,11.77
2022-09-11T06:35:58.342Z,12.10
2022-09-11T06:38:25.488Z,12.30
2022-09-11T06:40:52.392Z,11.97
2022-09-11T06:43:19.820Z,12.10
2022-09-11T06:45:48.171Z,13.67
2022-09-11T06:48:16.516Z,14.60
2022-09-11T06:50:43.451Z,14.03
2022-09-11T06:53:11.922Z,12.57
2022-09-11T06:55:41.747Z,14.03
2022-09-11T06:58:08.709Z,12.73
2022-09-11T07:00:36.438Z,12.73
2022-09-11T07:03:04.434Z,13.17
2022-09-11T07:05:31.292Z,13.23
2022-09-11T07:07:57.894Z,11.97
2022-09-11T07:10:25.286Z,11.87
2022-09-11T07:12:55.624Z,10.17
2022-09-11T07:15:22.308Z,9.00
2022-09-11T07:17:49.023Z,14.90
2022-09-11T07:20:17.522Z,12.47
2022-09-11T07:22:45.436Z,12.33
2022-09-11T07:25:12.465Z,12.37
2022-09-11T07:27:39.032Z,10.60
2022-09-11T07:30:06.271Z,8.50
2022-09-11T07:32:32.832Z,8.57
2022-09-11T07:35:02.253Z,8.10
2022-09-11T07:37:28.794Z,8.10
2022-09-11T07:39:55.477Z,7.63
2022-09-11T07:42:22.075Z,7.50
2022-09-11T07:44:49.040Z,9.70
2022-09-11T07:47:15.764Z,9.17
2022-09-11T07:49:42.351Z,9.13
2022-09-11T07:52:12.643Z,9.87
2022-09-11T07:54:42.750Z,10.33
2022-09-11T07:57:09.428Z,11.17
2022-09-11T07:59:35.962Z,10.17
2022-09-11T08:02:02.620Z,9.97
2022-09-11T08:04:29.288Z,9.43
2022-09-11T08:06:55.836Z,9.07
2022-09-11T08:09:22.445Z,8.63
2022-09-11T08:11:49.226Z,8.97
2022-09-11T08:14:17.504Z,8.33
2022-09-11T08:16:45.029Z,9.03
2022-09-11T08:19:20.737Z,9.30
2022-09-11T08:21:47.771Z,9.53
2022-09-11T08:24:16.893Z,9.53
2022-09-11T08:26:48.613Z,9.07
2022-09-11T08:29:15.828Z,9.90
2022-09-11T08:31:42.616Z,9.93
2022-09-11T08:34:10.329Z,12.47
2022-09-11T08:36:37.360Z,11.53
2022-09-11T08:39:05.117Z,7.90
2022-09-11T08:41:46.119Z,8.93
2022-09-11T08:44:43.772Z,7.73
2022-09-11T08:47:18.890Z,7.87
2022-09-11T08:50:11.863Z,7.87
2022-09-11T08:52:39.428Z,7.73
2022-09-11T08:55:12.090Z,8.27
2022-09-11T08:57:55.739Z,9.57
2022-09-11T09:00:28.237Z,7.53
2022-09-11T09:03:30.479Z,6.53
2022-09-11T09:06:12.845Z,6.57
2022-09-11T09:08:51.046Z,6.85
2022-09-11T09:11:40.377Z,6.80
2022-09-11T09:14:15.106Z,5.88
2022-09-11T09:17:07.870Z,5.53
2022-09-11T09:19:46.477Z,5.57
2022-09-11T09:22:18.964Z,4.35
2022-09-11T09:24:58.941Z,5.05
2022-09-11T09:27:37.154Z,4.47
2022-09-11T09:30:13.247Z,4.30
2022-09-11T09:32:45.530Z,4.75
2022-09-11T09:35:21.648Z,4.57
2022-09-11T09:37:48.653Z,4.60
2022-09-11T09:40:17.809Z,4.97
2022-09-11T09:43:13.822Z,5.57
2022-09-11T09:46:34.801Z,5.47
2022-09-11T09:49:01.446Z,5.38
2022-09-11T09:51:28.257Z,5.22
2022-09-11T09:54:01.160Z,5.68
2022-09-11T09:56:31.554Z,4.47
2022-09-11T09:59:18.001Z,5.87
2022-09-11T10:01:52.160Z,5.60
2022-09-11T10:04:26.881Z,5.83
2022-09-11T10:07:05.734Z,5.83
2022-09-11T10:09:33.105Z,5.50
2022-09-11T10:12:07.537Z,6.00
2022-09-11T10:14:51.784Z,5.50
2022-09-11T10:17:31.206Z,5.30
2022-09-11T10:20:22.898Z,5.47
2022-09-11T10:22:51.054Z,4.27
2022-09-11T10:25:26.588Z,4.67
2022-09-11T10:28:04.831Z,4.30
2022-09-11T10:30:33.864Z,3.57
2022-09-11T10:33:04.097Z,2.60
2022-09-11T10:35:32.948Z,2.50
2022-09-11T10:38:18.086Z,1.42
2022-09-11T10:41:03.045Z,1.90
2022-09-11T10:43:40.968Z,1.50
2022-09-11T10:46:41.256Z,1.63
2022-09-11T10:49:21.128Z,1.25
2022-09-11T10:52:01.861Z,1.40
2022-09-11T10:55:03.520Z,1.50
2022-09-11T10:57:43.941Z,1.30
2022-09-11T11:00:16.157Z,1.50
2022-09-11T11:02:55.939Z,1.20
2022-09-11T11:05:38.468Z,1.40
2022-09-11T11:08:15.640Z,1.33
2022-09-11T11:11:06.361Z,1.42
2022-09-11T11:13:38.525Z,1.05
2022-09-11T11:16:20.169Z,1.30
2022-09-11T11:18:59.158Z,1.20
2022-09-11T11:21:45.473Z,1.30
2022-09-11T11:24:39.836Z,0.98
2022-09-11T11:27:24.466Z,1.15
2022-09-11T11:30:09.140Z,1.13
2022-09-11T11:32:54.465Z,0.95
2022-09-11T11:35:41.289Z,0.98
2022-09-11T11:38:16.241Z,1.15
2022-09-11T11:40:53.269Z,0.90
2022-09-11T11:43:25.234Z,1.10
2022-09-11T11:45:55.279Z,1.20
2022-09-11T11:48:44.639Z,0.90
2022-09-11T11:51:17.559Z,0.82
2022-09-11T11:53:51.048Z,0.80
2022-09-11T11:56:46.589Z,1.00
2022-09-11T11:59:36.069Z,0.85
2022-09-11T12:02:08.860Z,0.70
2022-09-11T12:05:13.265Z,0.70
2022-09-11T12:07:41.229Z,0.80
2022-09-11T12:10:21.676Z,0.82
2022-09-11T12:12:56.363Z,0.60
2022-09-11T12:15:30.143Z,0.90
2022-09-11T12:18:12.044Z,0.90
2022-09-11T12:20:40.746Z,1.30
2022-09-11T12:23:27.709Z,1.00
2022-09-11T12:26:20.028Z,0.70
2022-09-11T12:28:47.229Z,0.77
2022-09-11T12:31:16.281Z,0.90
2022-09-11T12:33:48.717Z,0.60
2022-09-11T12:36:18.804Z,0.80
2022-09-11T12:38:59.401Z,0.70
2022-09-11T12:41:30.060Z,0.80
2022-09-11T12:43:57.384Z,0.80
2022-09-11T12:46:24.341Z,0.90
2022-09-11T12:49:22.114Z,0.90
2022-09-11T12:51:56.218Z,1.33
2022-09-11T12:54:31.195Z,0.75
2022-09-11T12:57:19.153Z,0.60
2022-09-11T12:59:52.447Z,0.70
2022-09-11T13:02:25.166Z,0.75
2022-09-11T13:04:52.681Z,0.90
2022-09-11T13:07:41.149Z,0.82
2022-09-11T13:10:28.685Z,0.77
2022-09-11T13:13:03.206Z,0.82
2022-09-11T13:15:43.046Z,0.80
2022-09-11T13:18:29.714Z,0.90
2022-09-11T13:20:58.762Z,0.85
2022-09-11T13:23:26.362Z,1.20
2022-09-11T13:25:56.061Z,0.90
2022-09-11T13:28:27.077Z,0.80
2022-09-11T13:31:00.484Z,0.90
2022-09-11T13:33:29.241Z,0.70
2022-09-11T13:35:58.485Z,0.70
2022-09-11T13:38:34.879Z,0.80
2022-09-11T13:41:06.134Z,0.98
2022-09-11T13:43:44.838Z,0.70
2022-09-11T13:46:18.244Z,0.80
2022-09-11T13:48:46.917Z,0.57
2022-09-11T13:51:16.401Z,0.65
2022-09-11T13:53:45.709Z,0.80
2022-09-11T13:56:51.269Z,0.80
2022-09-11T13:59:38.176Z,0.87
2022-09-11T14:02:17.308Z,0.90
2022-09-11T14:04:46.206Z,0.97
2022-09-11T14:07:26.634Z,0.90
2022-09-11T14:10:27.029Z,0.80
2022-09-11T14:13:20.836Z,0.80
2022-09-11T14:15:47.394Z,1.10
2022-09-11T14:18:28.683Z,1.13
2022-09-11T14:20:57.345Z,1.07
2022-09-11T14:23:27.381Z,0.70
2022-09-11T14:26:09.925Z,0.77
2022-09-11T14:28:43.035Z,0.77
2022-09-11T14:31:13.160Z,0.90
2022-09-11T14:33:40.355Z,0.70
2022-09-11T14:36:20.487Z,0.70
2022-09-11T14:38:47.577Z,0.90
2022-09-11T14:41:14.333Z,0.80
2022-09-11T14:43:41.004Z,0.80
2022-09-11T14:46:07.620Z,0.80
2022-09-11T14:48:35.494Z,0.80
2022-09-11T14:51:11.395Z,0.90
2022-09-11T14:53:43.270Z,0.90
2022-09-11T14:56:10.282Z,0.80
2022-09-11T14:58:36.891Z,0.73
2022-09-11T15:01:03.519Z,0.90
2022-09-11T15:03:30.892Z,0.70
2022-09-11T15:05:58.492Z,0.90
2022-09-11T15:08:25.738Z,0.80
2022-09-11T15:10:53.380Z,0.90
2022-09-11T15:13:21.005Z,0.73
2022-09-11T15:15:47.923Z,0.60
2022-09-11T15:18:14.710Z,0.80
2022-09-11T15:20:41.317Z,0.80
2022-09-11T15:23:07.945Z,0.90
2022-09-11T15:25:34.541Z,0.80
2022-09-11T15:28:01.520Z,0.67
2022-09-11T15:30:28.685Z,0.63
2022-09-11T15:32:55.269Z,0.70
2022-09-11T15:35:23.633Z,0.80
2022-09-11T15:37:50.613Z,0.70
2022-09-11T15:40:17.702Z,0.80
2022-09-11T15:42:44.477Z,0.77
2022-09-11T15:45:12.849Z,0.80
2022-09-11T15:47:40.265Z,0.90
2022-09-11T15:50:07.647Z,0.77
2022-09-11T15:52:36.188Z,0.80
2022-09-11T15:55:03.778Z,0.60
2022-09-11T15:57:31.193Z,0.73
2022-09-11T15:59:57.854Z,0.70
2022-09-11T16:02:24.476Z,0.77
2022-09-11T16:04:53.685Z,0.60
2022-09-11T16:07:21.171Z,0.80
2022-09-11T16:09:47.829Z,0.70
2022-09-11T16:12:15.564Z,1.00
2022-09-11T16:14:42.242Z,0.87
2022-09-11T16:17:08.937Z,0.70
2022-09-11T16:19:36.042Z,0.80
2022-09-11T16:22:04.514Z,0.80
2022-09-11T16:24:37.056Z,0.80
2022-09-11T16:27:06.217Z,0.93
2022-09-11T16:29:59.020Z,0.80
2022-09-11T16:32:28.329Z,0.87
2022-09-11T16:34:57.789Z,0.80
2022-09-11T16:37:24.931Z,0.90
2022-09-11T16:39:51.571Z,0.87
2022-09-11T16:42:20.935Z,0.90
2022-09-11T16:44:47.754Z,0.87
2022-09-11T16:47:14.376Z,1.00
2022-09-11T16:50:03.323Z,0.90
2022-09-11T16:52:27.981Z,1.10
2022-09-11T16:54:54.533Z,0.93
2022-09-11T16:57:21.271Z,0.80
2022-09-11T16:59:48.310Z,0.80
2022-09-11T17:02:14.910Z,0.87
2022-09-11T17:04:41.492Z,0.90
2022-09-11T17:07:08.125Z,1.07
2022-09-11T17:09:34.714Z,1.03
2022-09-11T17:12:02.717Z,0.70
2022-09-11T17:14:30.091Z,0.80
2022-09-11T17:16:56.986Z,0.90
2022-09-11T17:19:23.567Z,0.97
2022-09-11T17:21:50.816Z,0.90
2022-09-11T17:24:21.425Z,0.90
2022-09-11T17:26:51.701Z,0.83
2022-09-11T17:29:19.373Z,1.00
2022-09-11T17:31:46.645Z,1.27
2022-09-11T17:34:14.525Z,0.80
2022-09-11T17:36:41.230Z,0.80
2022-09-11T17:39:07.784Z,1.10
2022-09-11T17:41:34.708Z,0.87
2022-09-11T17:44:01.284Z,1.20
2022-09-11T17:46:28.639Z,1.00
2022-09-11T17:48:55.737Z,0.90
2022-09-11T17:51:25.211Z,0.80
2022-09-11T17:53:57.437Z,1.07
2022-09-11T17:56:27.005Z,0.93
2022-09-11T17:58:59.437Z,0.90
2022-09-11T18:01:27.271Z,1.10
2022-09-11T18:03:58.415Z,1.00
2022-09-11T18:06:28.152Z,1.07
2022-09-11T18:08:58.087Z,1.00
2022-09-11T18:11:24.875Z,1.00
2022-09-11T18:13:51.448Z,1.00
2022-09-11T18:16:18.076Z,0.90
2022-09-11T18:18:44.736Z,0.93
2022-09-11T18:21:12.184Z,1.10
2022-09-11T18:23:41.815Z,1.00
2022-09-11T18:26:22.277Z,1.00
2022-09-11T18:28:50.200Z,1.20
2022-09-11T18:31:16.847Z,1.10
2022-09-11T18:33:43.957Z,1.20
2022-09-11T18:36:13.340Z,1.13
2022-09-11T18:38:40.496Z,1.07
2022-09-11T18:41:07.166Z,1.10
2022-09-11T18:43:33.838Z,1.20
2022-09-11T18:46:03.402Z,1.30
2022-09-11T18:48:30.066Z,1.20
2022-09-11T18:51:00.049Z,1.00
2022-09-11T18:53:26.965Z,1.27
2022-09-11T18:56:03.838Z,1.20
2022-09-11T18:58:35.774Z,1.30
2022-09-11T19:01:07.895Z,1.00
2022-09-11T19:03:34.897Z,1.10
2022-09-11T19:06:07.581Z,1.30
2022-09-11T19:08:37.056Z,1.03
2022-09-11T19:11:13.215Z,1.20
2022-09-11T19:13:41.102Z,1.30
2022-09-11T19:16:08.344Z,1.40
2022-09-11T19:18:36.668Z,1.30
2022-09-11T19:21:10.198Z,1.20
2022-09-11T19:23:39.752Z,1.40
2022-09-11T19:26:18.910Z,1.40
2022-09-11T19:28:46.826Z,1.40
2022-09-11T19:31:16.361Z,1.40
2022-09-11T19:33:44.438Z,1.30
2022-09-11T19:36:17.855Z,1.43
2022-09-11T19:38:46.772Z,1.37
2022-09-11T19:41:15.712Z,1.43
2022-09-11T19:43:44.316Z,1.50
2022-09-11T19:46:13.469Z,1.63
2022-09-11T19:48:40.853Z,1.30
2022-09-11T19:51:16.649Z,1.50
2022-09-11T19:53:43.804Z,1.50
2022-09-11T19:56:11.605Z,1.50
2022-09-11T19:58:41.282Z,1.63
2022-09-11T20:01:15.861Z,1.50
2022-09-11T20:03:44.778Z,1.40
2022-09-11T20:06:13.130Z,1.73
2022-09-11T20:08:43.261Z,1.90
2022-09-11T20:11:13.596Z,1.70
2022-09-11T20:13:40.236Z,1.60
2022-09-11T20:16:09.308Z,1.73
2022-09-11T20:18:36.364Z,1.70
2022-09-11T20:21:08.186Z,1.50
2022-09-11T20:23:35.478Z,1.50
2022-09-11T20:26:12.533Z,1.70
2022-09-11T20:28:41.554Z,1.50
2022-09-11T20:31:39.038Z,1.90
2022-09-11T20:34:09.150Z,1.90
2022-09-11T20:36:35.769Z,1.50
2022-09-11T20:39:02.883Z,1.70
2022-09-11T20:41:30.357Z,1.73
2022-09-11T20:43:59.949Z,1.80
2022-09-11T20:46:27.114Z,2.10
2022-09-11T20:48:54.081Z,2.17
2022-09-11T20:51:22.487Z,1.83
2022-09-11T20:53:49.728Z,2.03
2022-09-11T20:56:20.340Z,2.10
2022-09-11T20:58:47.284Z,2.30
2022-09-11T21:01:17.558Z,2.20
2022-09-11T21:03:49.724Z,2.70
2022-09-11T21:06:16.928Z,1.80
2022-09-11T21:08:44.401Z,2.17
2022-09-11T21:11:12.192Z,2.70
2022-09-11T21:13:40.553Z,2.77
2022-09-11T21:16:10.174Z,2.67
2022-09-11T21:18:37.758Z,2.23
2022-09-11T21:21:04.676Z,2.53
2022-09-11T21:23:31.743Z,2.17
2022-09-11T21:25:58.389Z,2.53
2022-09-11T21:28:25.160Z,3.23
2022-09-11T21:30:51.819Z,2.27
2022-09-11T21:33:18.770Z,3.10
2022-09-11T21:35:52.651Z,3.43
2022-09-11T21:38:29.996Z,3.70
2022-09-11T21:40:58.549Z,3.40
2022-09-11T21:43:25.959Z,2.70
2022-09-11T21:45:52.968Z,2.90
2022-09-11T21:48:20.017Z,2.93
2022-09-11T21:50:46.591Z,2.87
2022-09-11T21:53:13.245Z,2.70
2022-09-11T21:55:44.684Z,3.13
2022-09-11T21:58:15.746Z,3.10
2022-09-11T22:00:43.384Z,3.13
2022-09-11T22:03:12.395Z,3.00
2022-09-11T22:05:43.434Z,3.30
2022-09-11T22:08:11.945Z,3.13
2022-09-11T22:10:43.005Z,3.60
2022-09-11T22:13:12.415Z,3.30
2022-09-11T22:15:40.647Z,3.60
2022-09-11T22:18:07.596Z,3.90
2022-09-11T22:20:35.957Z,3.77
2022-09-11T22:23:03.097Z,4.37
2022-09-11T22:25:29.757Z,3.50
2022-09-11T22:27:56.752Z,4.17
2022-09-11T22:30:23.841Z,4.20
2022-09-11T22:32:50.829Z,4.17
2022-09-11T22:35:17.672Z,4.20
2022-09-11T22:37:44.217Z,4.10
2022-09-11T22:40:11.091Z,4.40
2022-09-11T22:42:37.694Z,3.80
2022-09-11T22:45:04.705Z,4.37
2022-09-11T22:47:31.242Z,4.97
2022-09-11T22:49:57.809Z,4.43
2022-09-11T22:52:24.470Z,4.40
2022-09-11T22:54:51.489Z,5.03
2022-09-11T22:57:18.058Z,4.80
2022-09-11T22:59:47.259Z,4.70
2022-09-11T23:02:15.080Z,4.70
2022-09-11T23:05:01.736Z,5.23
2022-09-11T23:07:28.281Z,5.13
2022-09-11T23:09:54.825Z,5.30
2022-09-11T23:12:21.382Z,4.83
2022-09-11T23:14:48.069Z,5.47
2022-09-11T23:17:14.697Z,5.27
2022-09-11T23:19:41.400Z,5.97
2022-09-11T23:22:07.953Z,5.37
2022-09-11T23:24:34.507Z,6.17
2022-09-11T23:27:01.073Z,5.77
2022-09-11T23:29:27.790Z,5.60
2022-09-11T23:31:56.781Z,6.27
2022-09-11T23:34:23.416Z,5.40
2022-09-11T23:36:49.990Z,4.83
2022-09-11T23:39:16.604Z,5.17
2022-09-11T23:41:43.206Z,5.63
2022-09-11T23:44:10.363Z,5.50
2022-09-11T23:46:36.976Z,5.67
2022-09-11T23:49:04.134Z,5.47
2022-09-11T23:51:30.705Z,5.30
2022-09-11T23:53:57.289Z,5.77
2022-09-11T23:56:23.845Z,5.37
2022-09-11T23:58:51.297Z,5.70
